sensor_id;sensor_type;location;lat;lon;timestamp;P1;durP1;ratioP1;P2;durP2;ratioP2
47167;SDS011;32931;47.778;17.806;2023-03-16T00:00:31;8.20;;;3.30;;
47167;SDS011;32931;47.778;17.806;2023-03-16T00:02:57;11.30;;;3.20;;
47167;SDS011;32931;47.778;17.806;2023-03-16T00:05:23;10.32;;;3.42;;
47167;SDS011;32931;47.778;17.806;2023-03-16T00:07:50;9.07;;;3.13;;
47167;SDS011;32931;47.778;17.806;2023-03-16T00:10:16;7.85;;;2.83;;
47167;SDS011;32931;47.778;17.806;2023-03-16T00:12:43;7.55;;;2.80;;
47167;SDS011;32931;47.778;17.806;2023-03-16T00:15:12;10.98;;;2.90;;
47167;SDS011;32931;47.778;17.806;2023-03-16T00:17:38;10.65;;;2.70;;
47167;SDS011;32931;47.778;17.806;2023-03-16T00:20:04;9.07;;;2.63;;
47167;SDS011;32931;47.778;17.806;2023-03-16T00:22:31;6.97;;;2.65;;
47167;SDS011;32931;47.778;17.806;2023-03-16T00:24:58;12.18;;;3.08;;
47167;SDS011;32931;47.778;17.806;2023-03-16T00:27:24;6.88;;;2.53;;
47167;SDS011;32931;47.778;17.806;2023-03-16T00:29:52;8.07;;;2.83;;
47167;SDS011;32931;47.778;17.806;2023-03-16T00:32:42;6.20;;;2.80;;
47167;SDS011;32931;47.778;17.806;2023-03-16T00:35:07;7.05;;;2.70;;
47167;SDS011;32931;47.778;17.806;2023-03-16T00:37:34;11.13;;;2.45;;
47167;SDS011;32931;47.778;17.806;2023-03-16T00:40:02;8.93;;;2.53;;
47167;SDS011;32931;47.778;17.806;2023-03-16T00:42:28;6.47;;;2.78;;
47167;SDS011;32931;47.778;17.806;2023-03-16T00:44:56;6.38;;;2.53;;
47167;SDS011;32931;47.778;17.806;2023-03-16T00:47:27;4.70;;;2.40;;
47167;SDS011;32931;47.778;17.806;2023-03-16T00:49:55;7.03;;;3.03;;
47167;SDS011;32931;47.778;17.806;2023-03-16T00:52:21;4.63;;;2.58;;
47167;SDS011;32931;47.778;17.806;2023-03-16T00:54:48;9.80;;;3.38;;
47167;SDS011;32931;47.778;17.806;2023-03-16T00:57:17;6.80;;;2.70;;
47167;SDS011;32931;47.778;17.806;2023-03-16T00:59:44;8.02;;;2.85;;
47167;SDS011;32931;47.778;17.806;2023-03-16T01:02:11;8.35;;;3.15;;
47167;SDS011;32931;47.778;17.806;2023-03-16T01:04:37;8.40;;;3.05;;
47167;SDS011;32931;47.778;17.806;2023-03-16T01:07:07;6.22;;;2.80;;
47167;SDS011;32931;47.778;17.806;2023-03-16T01:09:37;8.07;;;2.95;;
47167;SDS011;32931;47.778;17.806;2023-03-16T01:12:14;6.22;;;2.95;;
47167;SDS011;32931;47.778;17.806;2023-03-16T01:14:42;7.70;;;3.30;;
47167;SDS011;32931;47.778;17.806;2023-03-16T01:17:12;8.07;;;2.95;;
47167;SDS011;32931;47.778;17.806;2023-03-16T01:19:39;10.48;;;3.15;;
47167;SDS011;32931;47.778;17.806;2023-03-16T01:22:06;6.55;;;3.00;;
47167;SDS011;32931;47.778;17.806;2023-03-16T01:24:34;6.80;;;3.13;;
47167;SDS011;32931;47.778;17.806;2023-03-16T01:27:01;9.35;;;3.55;;
47167;SDS011;32931;47.778;17.806;2023-03-16T01:29:27;6.53;;;3.35;;
47167;SDS011;32931;47.778;17.806;2023-03-16T01:31:54;8.13;;;3.85;;
47167;SDS011;32931;47.778;17.806;2023-03-16T01:34:20;8.52;;;4.10;;
47167;SDS011;32931;47.778;17.806;2023-03-16T01:36:47;8.10;;;4.25;;
47167;SDS011;32931;47.778;17.806;2023-03-16T01:39:14;9.45;;;3.75;;
47167;SDS011;32931;47.778;17.806;2023-03-16T01:41:41;8.50;;;3.78;;
47167;SDS011;32931;47.778;17.806;2023-03-16T01:44:13;8.52;;;4.40;;
47167;SDS011;32931;47.778;17.806;2023-03-16T01:46:44;10.65;;;4.28;;
47167;SDS011;32931;47.778;17.806;2023-03-16T01:49:15;8.70;;;4.15;;
47167;SDS011;32931;47.778;17.806;2023-03-16T01:51:45;6.43;;;4.28;;
47167;SDS011;32931;47.778;17.806;2023-03-16T01:54:25;7.03;;;4.40;;
47167;SDS011;32931;47.778;17.806;2023-03-16T01:57:03;9.20;;;4.70;;
47167;SDS011;32931;47.778;17.806;2023-03-16T01:59:39;9.15;;;5.15;;
47167;SDS011;32931;47.778;17.806;2023-03-16T02:02:09;8.30;;;4.93;;
47167;SDS011;32931;47.778;17.806;2023-03-16T02:07:39;9.05;;;5.00;;
47167;SDS011;32931;47.778;17.806;2023-03-16T02:10:12;11.70;;;6.03;;
47167;SDS011;32931;47.778;17.806;2023-03-16T02:12:41;10.23;;;5.80;;
47167;SDS011;32931;47.778;17.806;2023-03-16T02:15:08;11.82;;;6.13;;
47167;SDS011;32931;47.778;17.806;2023-03-16T02:17:35;9.70;;;6.40;;
47167;SDS011;32931;47.778;17.806;2023-03-16T02:22:42;9.95;;;6.25;;
47167;SDS011;32931;47.778;17.806;2023-03-16T02:25:12;10.20;;;6.07;;
47167;SDS011;32931;47.778;17.806;2023-03-16T02:30:22;10.55;;;6.28;;
47167;SDS011;32931;47.778;17.806;2023-03-16T02:32:49;9.15;;;5.97;;
47167;SDS011;32931;47.778;17.806;2023-03-16T02:35:17;12.85;;;6.90;;
47167;SDS011;32931;47.778;17.806;2023-03-16T02:37:44;10.38;;;7.18;;
47167;SDS011;32931;47.778;17.806;2023-03-16T02:42:53;12.13;;;7.82;;
47167;SDS011;32931;47.778;17.806;2023-03-16T02:45:24;12.55;;;7.10;;
47167;SDS011;32931;47.778;17.806;2023-03-16T02:47:53;14.48;;;7.60;;
47167;SDS011;32931;47.778;17.806;2023-03-16T02:50:20;12.25;;;8.05;;
47167;SDS011;32931;47.778;17.806;2023-03-16T02:52:46;15.18;;;7.90;;
47167;SDS011;32931;47.778;17.806;2023-03-16T02:55:13;11.00;;;7.60;;
47167;SDS011;32931;47.778;17.806;2023-03-16T02:57:39;17.40;;;8.98;;
47167;SDS011;32931;47.778;17.806;2023-03-16T03:00:06;13.18;;;8.23;;
47167;SDS011;32931;47.778;17.806;2023-03-16T03:02:37;15.23;;;8.50;;
47167;SDS011;32931;47.778;17.806;2023-03-16T03:05:03;16.58;;;8.88;;
47167;SDS011;32931;47.778;17.806;2023-03-16T03:07:30;12.45;;;8.35;;
47167;SDS011;32931;47.778;17.806;2023-03-16T03:09:56;13.23;;;9.15;;
47167;SDS011;32931;47.778;17.806;2023-03-16T03:12:23;13.13;;;8.18;;
47167;SDS011;32931;47.778;17.806;2023-03-16T03:14:49;16.05;;;9.57;;
47167;SDS011;32931;47.778;17.806;2023-03-16T03:17:15;14.48;;;8.65;;
47167;SDS011;32931;47.778;17.806;2023-03-16T03:19:41;16.55;;;9.13;;
47167;SDS011;32931;47.778;17.806;2023-03-16T03:22:07;16.25;;;9.07;;
47167;SDS011;32931;47.778;17.806;2023-03-16T03:24:34;13.75;;;9.15;;
47167;SDS011;32931;47.778;17.806;2023-03-16T03:27:00;14.52;;;8.90;;
47167;SDS011;32931;47.778;17.806;2023-03-16T03:29:33;14.65;;;8.70;;
47167;SDS011;32931;47.778;17.806;2023-03-16T03:32:00;16.88;;;9.93;;
47167;SDS011;32931;47.778;17.806;2023-03-16T03:34:27;16.60;;;9.40;;
47167;SDS011;32931;47.778;17.806;2023-03-16T03:36:54;14.65;;;8.98;;
47167;SDS011;32931;47.778;17.806;2023-03-16T03:39:20;13.50;;;8.27;;
47167;SDS011;32931;47.778;17.806;2023-03-16T03:41:47;15.65;;;9.82;;
47167;SDS011;32931;47.778;17.806;2023-03-16T03:44:13;15.18;;;9.30;;
47167;SDS011;32931;47.778;17.806;2023-03-16T03:46:39;15.73;;;8.98;;
47167;SDS011;32931;47.778;17.806;2023-03-16T03:49:05;17.17;;;9.52;;
47167;SDS011;32931;47.778;17.806;2023-03-16T03:51:32;13.50;;;9.07;;
47167;SDS011;32931;47.778;17.806;2023-03-16T03:53:58;14.00;;;10.25;;
47167;SDS011;32931;47.778;17.806;2023-03-16T03:56:25;21.83;;;10.45;;
47167;SDS011;32931;47.778;17.806;2023-03-16T03:58:51;15.23;;;9.93;;
47167;SDS011;32931;47.778;17.806;2023-03-16T04:01:17;17.00;;;10.68;;
47167;SDS011;32931;47.778;17.806;2023-03-16T04:03:43;22.00;;;10.77;;
47167;SDS011;32931;47.778;17.806;2023-03-16T04:06:09;15.95;;;10.82;;
47167;SDS011;32931;47.778;17.806;2023-03-16T04:08:36;18.73;;;11.85;;
47167;SDS011;32931;47.778;17.806;2023-03-16T04:11:02;14.55;;;10.50;;
47167;SDS011;32931;47.778;17.806;2023-03-16T04:13:28;18.35;;;11.50;;
47167;SDS011;32931;47.778;17.806;2023-03-16T04:15:55;16.95;;;10.95;;
47167;SDS011;32931;47.778;17.806;2023-03-16T04:18:22;21.83;;;11.82;;
47167;SDS011;32931;47.778;17.806;2023-03-16T04:20:49;16.95;;;12.00;;
47167;SDS011;32931;47.778;17.806;2023-03-16T04:23:18;17.38;;;11.30;;
47167;SDS011;32931;47.778;17.806;2023-03-16T04:25:45;16.63;;;11.90;;
47167;SDS011;32931;47.778;17.806;2023-03-16T04:28:11;18.45;;;11.63;;
47167;SDS011;32931;47.778;17.806;2023-03-16T04:30:38;15.60;;;10.93;;
47167;SDS011;32931;47.778;17.806;2023-03-16T04:33:04;19.63;;;11.60;;
47167;SDS011;32931;47.778;17.806;2023-03-16T04:35:30;19.98;;;12.32;;
47167;SDS011;32931;47.778;17.806;2023-03-16T04:37:56;19.50;;;12.10;;
47167;SDS011;32931;47.778;17.806;2023-03-16T04:40:22;18.80;;;12.13;;
47167;SDS011;32931;47.778;17.806;2023-03-16T04:42:50;19.77;;;12.43;;
47167;SDS011;32931;47.778;17.806;2023-03-16T04:45:16;19.08;;;12.75;;
47167;SDS011;32931;47.778;17.806;2023-03-16T04:47:43;21.80;;;12.93;;
47167;SDS011;32931;47.778;17.806;2023-03-16T04:50:10;19.55;;;12.32;;
47167;SDS011;32931;47.778;17.806;2023-03-16T04:52:36;21.40;;;12.07;;
47167;SDS011;32931;47.778;17.806;2023-03-16T04:55:03;17.92;;;12.05;;
47167;SDS011;32931;47.778;17.806;2023-03-16T04:57:30;22.27;;;13.23;;
47167;SDS011;32931;47.778;17.806;2023-03-16T04:59:56;22.92;;;14.45;;
47167;SDS011;32931;47.778;17.806;2023-03-16T05:02:23;24.85;;;14.07;;
47167;SDS011;32931;47.778;17.806;2023-03-16T05:04:49;23.02;;;15.50;;
47167;SDS011;32931;47.778;17.806;2023-03-16T05:07:15;23.45;;;14.55;;
47167;SDS011;32931;47.778;17.806;2023-03-16T05:09:41;21.77;;;14.63;;
47167;SDS011;32931;47.778;17.806;2023-03-16T05:12:08;23.42;;;15.55;;
47167;SDS011;32931;47.778;17.806;2023-03-16T05:14:35;22.05;;;15.18;;
47167;SDS011;32931;47.778;17.806;2023-03-16T05:17:01;22.58;;;15.43;;
47167;SDS011;32931;47.778;17.806;2023-03-16T05:19:31;23.83;;;16.10;;
47167;SDS011;32931;47.778;17.806;2023-03-16T05:21:57;22.02;;;15.68;;
47167;SDS011;32931;47.778;17.806;2023-03-16T05:24:23;21.80;;;15.52;;
47167;SDS011;32931;47.778;17.806;2023-03-16T05:26:49;22.23;;;16.45;;
47167;SDS011;32931;47.778;17.806;2023-03-16T05:29:16;20.98;;;15.82;;
47167;SDS011;32931;47.778;17.806;2023-03-16T05:31:42;25.80;;;15.80;;
47167;SDS011;32931;47.778;17.806;2023-03-16T05:34:12;27.73;;;17.10;;
47167;SDS011;32931;47.778;17.806;2023-03-16T05:36:38;28.02;;;16.65;;
47167;SDS011;32931;47.778;17.806;2023-03-16T05:39:04;28.30;;;16.98;;
47167;SDS011;32931;47.778;17.806;2023-03-16T05:41:32;24.02;;;17.17;;
47167;SDS011;32931;47.778;17.806;2023-03-16T05:43:59;25.48;;;17.08;;
47167;SDS011;32931;47.778;17.806;2023-03-16T05:46:25;24.70;;;17.05;;
47167;SDS011;32931;47.778;17.806;2023-03-16T05:48:51;24.65;;;16.77;;
47167;SDS011;32931;47.778;17.806;2023-03-16T05:51:17;24.25;;;17.13;;
47167;SDS011;32931;47.778;17.806;2023-03-16T05:53:43;21.92;;;16.35;;
47167;SDS011;32931;47.778;17.806;2023-03-16T05:56:11;24.05;;;16.52;;
47167;SDS011;32931;47.778;17.806;2023-03-16T05:58:37;23.80;;;16.48;;
47167;SDS011;32931;47.778;17.806;2023-03-16T06:01:03;30.10;;;16.98;;
47167;SDS011;32931;47.778;17.806;2023-03-16T06:03:30;24.90;;;16.63;;
47167;SDS011;32931;47.778;17.806;2023-03-16T06:05:57;26.48;;;17.02;;
47167;SDS011;32931;47.778;17.806;2023-03-16T06:08:23;24.52;;;16.63;;
47167;SDS011;32931;47.778;17.806;2023-03-16T06:10:49;24.42;;;16.60;;
47167;SDS011;32931;47.778;17.806;2023-03-16T06:13:15;28.65;;;18.20;;
47167;SDS011;32931;47.778;17.806;2023-03-16T06:15:41;28.52;;;18.75;;
47167;SDS011;32931;47.778;17.806;2023-03-16T06:18:08;28.88;;;17.52;;
47167;SDS011;32931;47.778;17.806;2023-03-16T06:20:35;27.73;;;18.08;;
47167;SDS011;32931;47.778;17.806;2023-03-16T06:23:01;27.02;;;17.83;;
47167;SDS011;32931;47.778;17.806;2023-03-16T06:25:28;21.45;;;16.73;;
47167;SDS011;32931;47.778;17.806;2023-03-16T06:27:55;22.55;;;15.95;;
47167;SDS011;32931;47.778;17.806;2023-03-16T06:30:21;21.83;;;15.90;;
47167;SDS011;32931;47.778;17.806;2023-03-16T06:32:48;24.13;;;15.75;;
47167;SDS011;32931;47.778;17.806;2023-03-16T06:35:14;25.48;;;15.88;;
47167;SDS011;32931;47.778;17.806;2023-03-16T06:37:40;25.63;;;15.23;;
47167;SDS011;32931;47.778;17.806;2023-03-16T06:40:06;22.63;;;14.98;;
47167;SDS011;32931;47.778;17.806;2023-03-16T06:42:33;23.55;;;15.15;;
47167;SDS011;32931;47.778;17.806;2023-03-16T06:44:59;23.65;;;14.55;;
47167;SDS011;32931;47.778;17.806;2023-03-16T06:47:25;25.52;;;14.63;;
47167;SDS011;32931;47.778;17.806;2023-03-16T06:49:52;21.98;;;13.90;;
47167;SDS011;32931;47.778;17.806;2023-03-16T06:52:20;23.45;;;14.30;;
47167;SDS011;32931;47.778;17.806;2023-03-16T06:54:48;22.23;;;15.18;;
47167;SDS011;32931;47.778;17.806;2023-03-16T06:57:14;24.85;;;15.80;;
47167;SDS011;32931;47.778;17.806;2023-03-16T06:59:40;23.33;;;13.88;;
47167;SDS011;32931;47.778;17.806;2023-03-16T07:02:08;20.38;;;13.15;;
47167;SDS011;32931;47.778;17.806;2023-03-16T07:04:36;24.73;;;13.73;;
47167;SDS011;32931;47.778;17.806;2023-03-16T07:07:02;24.15;;;12.57;;
47167;SDS011;32931;47.778;17.806;2023-03-16T07:09:28;21.80;;;13.63;;
47167;SDS011;32931;47.778;17.806;2023-03-16T07:11:56;19.42;;;11.63;;
47167;SDS011;32931;47.778;17.806;2023-03-16T07:14:22;21.05;;;11.90;;
47167;SDS011;32931;47.778;17.806;2023-03-16T07:16:50;23.38;;;12.27;;
47167;SDS011;32931;47.778;17.806;2023-03-16T07:19:17;22.58;;;12.35;;
47167;SDS011;32931;47.778;17.806;2023-03-16T07:21:44;21.60;;;12.35;;
47167;SDS011;32931;47.778;17.806;2023-03-16T07:24:10;21.02;;;12.38;;
47167;SDS011;32931;47.778;17.806;2023-03-16T07:26:37;20.63;;;12.57;;
47167;SDS011;32931;47.778;17.806;2023-03-16T07:29:04;17.35;;;12.20;;
47167;SDS011;32931;47.778;17.806;2023-03-16T07:31:32;22.80;;;13.52;;
47167;SDS011;32931;47.778;17.806;2023-03-16T07:33:59;17.63;;;12.48;;
47167;SDS011;32931;47.778;17.806;2023-03-16T07:36:26;27.42;;;12.00;;
47167;SDS011;32931;47.778;17.806;2023-03-16T07:38:53;20.80;;;12.45;;
47167;SDS011;32931;47.778;17.806;2023-03-16T07:41:19;18.75;;;12.02;;
47167;SDS011;32931;47.778;17.806;2023-03-16T07:43:46;19.13;;;12.38;;
47167;SDS011;32931;47.778;17.806;2023-03-16T07:46:12;19.63;;;12.23;;
47167;SDS011;32931;47.778;17.806;2023-03-16T07:48:39;17.83;;;10.93;;
47167;SDS011;32931;47.778;17.806;2023-03-16T07:51:07;16.83;;;11.65;;
47167;SDS011;32931;47.778;17.806;2023-03-16T07:53:34;18.30;;;10.85;;
47167;SDS011;32931;47.778;17.806;2023-03-16T07:56:00;17.77;;;11.25;;
47167;SDS011;32931;47.778;17.806;2023-03-16T07:58:26;16.65;;;10.93;;
47167;SDS011;32931;47.778;17.806;2023-03-16T08:00:56;21.70;;;9.20;;
47167;SDS011;32931;47.778;17.806;2023-03-16T08:03:27;18.65;;;8.15;;
47167;SDS011;32931;47.778;17.806;2023-03-16T08:05:54;20.08;;;9.05;;
47167;SDS011;32931;47.778;17.806;2023-03-16T08:08:21;16.08;;;8.27;;
47167;SDS011;32931;47.778;17.806;2023-03-16T08:10:47;17.52;;;7.65;;
47167;SDS011;32931;47.778;17.806;2023-03-16T08:13:17;17.42;;;7.95;;
47167;SDS011;32931;47.778;17.806;2023-03-16T08:15:52;15.13;;;7.68;;
47167;SDS011;32931;47.778;17.806;2023-03-16T08:18:23;16.88;;;7.95;;
47167;SDS011;32931;47.778;17.806;2023-03-16T08:20:51;19.02;;;8.38;;
47167;SDS011;32931;47.778;17.806;2023-03-16T08:23:17;15.38;;;7.93;;
47167;SDS011;32931;47.778;17.806;2023-03-16T08:25:43;22.52;;;8.07;;
47167;SDS011;32931;47.778;17.806;2023-03-16T08:28:10;19.52;;;7.72;;
47167;SDS011;32931;47.778;17.806;2023-03-16T08:30:42;14.93;;;6.50;;
47167;SDS011;32931;47.778;17.806;2023-03-16T08:35:36;15.27;;;6.32;;
47167;SDS011;32931;47.778;17.806;2023-03-16T08:38:05;15.23;;;6.60;;
47167;SDS011;32931;47.778;17.806;2023-03-16T08:40:31;18.58;;;6.57;;
47167;SDS011;32931;47.778;17.806;2023-03-16T08:42:59;22.30;;;6.60;;
47167;SDS011;32931;47.778;17.806;2023-03-16T08:45:26;14.68;;;5.90;;
47167;SDS011;32931;47.778;17.806;2023-03-16T08:47:53;18.25;;;7.05;;
47167;SDS011;32931;47.778;17.806;2023-03-16T08:50:19;22.20;;;7.05;;
47167;SDS011;32931;47.778;17.806;2023-03-16T08:52:45;13.65;;;5.75;;
47167;SDS011;32931;47.778;17.806;2023-03-16T08:55:13;12.82;;;6.32;;
47167;SDS011;32931;47.778;17.806;2023-03-16T08:57:40;23.20;;;6.32;;
47167;SDS011;32931;47.778;17.806;2023-03-16T09:00:09;18.30;;;6.07;;
47167;SDS011;32931;47.778;17.806;2023-03-16T09:02:42;10.93;;;5.72;;
47167;SDS011;32931;47.778;17.806;2023-03-16T09:05:10;11.13;;;5.18;;
47167;SDS011;32931;47.778;17.806;2023-03-16T09:07:37;9.00;;;4.85;;
47167;SDS011;32931;47.778;17.806;2023-03-16T09:10:04;11.95;;;5.05;;
47167;SDS011;32931;47.778;17.806;2023-03-16T09:12:33;12.88;;;5.20;;
47167;SDS011;32931;47.778;17.806;2023-03-16T09:15:01;13.02;;;5.25;;
47167;SDS011;32931;47.778;17.806;2023-03-16T09:17:27;9.43;;;5.50;;
47167;SDS011;32931;47.778;17.806;2023-03-16T09:19:53;10.75;;;4.82;;
47167;SDS011;32931;47.778;17.806;2023-03-16T09:22:20;11.82;;;5.78;;
47167;SDS011;32931;47.778;17.806;2023-03-16T09:24:47;12.25;;;5.95;;
47167;SDS011;32931;47.778;17.806;2023-03-16T09:27:14;10.13;;;5.60;;
47167;SDS011;32931;47.778;17.806;2023-03-16T09:29:41;12.02;;;5.40;;
47167;SDS011;32931;47.778;17.806;2023-03-16T09:32:07;14.13;;;5.13;;
47167;SDS011;32931;47.778;17.806;2023-03-16T09:34:34;10.52;;;5.10;;
47167;SDS011;32931;47.778;17.806;2023-03-16T09:37:00;15.18;;;4.90;;
47167;SDS011;32931;47.778;17.806;2023-03-16T09:39:27;14.65;;;4.95;;
47167;SDS011;32931;47.778;17.806;2023-03-16T09:44:41;14.73;;;5.25;;
47167;SDS011;32931;47.778;17.806;2023-03-16T09:47:41;10.00;;;5.28;;
47167;SDS011;32931;47.778;17.806;2023-03-16T09:50:15;9.40;;;4.30;;
47167;SDS011;32931;47.778;17.806;2023-03-16T09:55:42;13.65;;;4.78;;
47167;SDS011;32931;47.778;17.806;2023-03-16T09:58:16;12.73;;;4.47;;
47167;SDS011;32931;47.778;17.806;2023-03-16T10:06:03;7.93;;;3.83;;
47167;SDS011;32931;47.778;17.806;2023-03-16T10:08:42;17.35;;;5.70;;
47167;SDS011;32931;47.778;17.806;2023-03-16T10:11:29;9.18;;;4.18;;
47167;SDS011;32931;47.778;17.806;2023-03-16T10:19:17;12.73;;;4.50;;
47167;SDS011;32931;47.778;17.806;2023-03-16T10:21:48;9.80;;;4.40;;
47167;SDS011;32931;47.778;17.806;2023-03-16T10:24:26;11.70;;;4.40;;
47167;SDS011;32931;47.778;17.806;2023-03-16T10:27:05;11.07;;;5.15;;
47167;SDS011;32931;47.778;17.806;2023-03-16T10:29:39;11.57;;;4.38;;
47167;SDS011;32931;47.778;17.806;2023-03-16T10:32:15;14.48;;;4.85;;
47167;SDS011;32931;47.778;17.806;2023-03-16T10:34:45;13.77;;;4.65;;
47167;SDS011;32931;47.778;17.806;2023-03-16T10:37:23;11.27;;;4.45;;
47167;SDS011;32931;47.778;17.806;2023-03-16T10:39:54;12.02;;;4.80;;
47167;SDS011;32931;47.778;17.806;2023-03-16T10:42:20;12.05;;;4.55;;
47167;SDS011;32931;47.778;17.806;2023-03-16T10:44:48;14.70;;;4.55;;
47167;SDS011;32931;47.778;17.806;2023-03-16T10:47:22;11.23;;;4.10;;
47167;SDS011;32931;47.778;17.806;2023-03-16T10:49:53;9.93;;;4.25;;
47167;SDS011;32931;47.778;17.806;2023-03-16T10:55:05;9.65;;;3.95;;
47167;SDS011;32931;47.778;17.806;2023-03-16T10:57:40;9.82;;;4.38;;
47167;SDS011;32931;47.778;17.806;2023-03-16T11:00:11;9.85;;;4.32;;
47167;SDS011;32931;47.778;17.806;2023-03-16T11:02:43;11.50;;;4.47;;
47167;SDS011;32931;47.778;17.806;2023-03-16T11:10:31;6.38;;;3.22;;
47167;SDS011;32931;47.778;17.806;2023-03-16T11:13:11;8.37;;;3.80;;
47167;SDS011;32931;47.778;17.806;2023-03-16T11:15:56;13.25;;;3.75;;
47167;SDS011;32931;47.778;17.806;2023-03-16T11:20:57;9.43;;;3.97;;
47167;SDS011;32931;47.778;17.806;2023-03-16T11:23:32;8.85;;;3.30;;
47167;SDS011;32931;47.778;17.806;2023-03-16T11:26:01;9.88;;;3.60;;
47167;SDS011;32931;47.778;17.806;2023-03-16T11:28:34;10.43;;;3.20;;
47167;SDS011;32931;47.778;17.806;2023-03-16T11:33:44;5.63;;;2.92;;
47167;SDS011;32931;47.778;17.806;2023-03-16T11:44:04;11.02;;;3.08;;
47167;SDS011;32931;47.778;17.806;2023-03-16T11:47:44;11.40;;;2.60;;
47167;SDS011;32931;47.778;17.806;2023-03-16T11:55:15;6.20;;;3.08;;
47167;SDS011;32931;47.778;17.806;2023-03-16T12:18:54;6.30;;;2.13;;
47167;SDS011;32931;47.778;17.806;2023-03-16T12:21:35;8.32;;;2.65;;
47167;SDS011;32931;47.778;17.806;2023-03-16T12:24:05;8.70;;;2.45;;
47167;SDS011;32931;47.778;17.806;2023-03-16T12:26:41;9.65;;;2.70;;
47167;SDS011;32931;47.778;17.806;2023-03-16T12:29:13;6.88;;;2.03;;
47167;SDS011;32931;47.778;17.806;2023-03-16T12:36:59;8.00;;;2.17;;
47167;SDS011;32931;47.778;17.806;2023-03-16T12:44:44;9.57;;;2.53;;
47167;SDS011;32931;47.778;17.806;2023-03-16T12:47:22;5.70;;;2.17;;
47167;SDS011;32931;47.778;17.806;2023-03-16T12:50:08;8.50;;;2.53;;
47167;SDS011;32931;47.778;17.806;2023-03-16T12:52:44;9.25;;;2.35;;
47167;SDS011;32931;47.778;17.806;2023-03-16T12:55:19;5.72;;;2.40;;
47167;SDS011;32931;47.778;17.806;2023-03-16T12:57:59;8.60;;;2.22;;
47167;SDS011;32931;47.778;17.806;2023-03-16T13:00:36;6.60;;;2.50;;
47167;SDS011;32931;47.778;17.806;2023-03-16T13:03:12;6.13;;;2.35;;
47167;SDS011;32931;47.778;17.806;2023-03-16T13:08:11;8.77;;;2.55;;
47167;SDS011;32931;47.778;17.806;2023-03-16T13:10:40;7.68;;;2.00;;
47167;SDS011;32931;47.778;17.806;2023-03-16T13:15:39;5.18;;;2.20;;
47167;SDS011;32931;47.778;17.806;2023-03-16T13:20:49;5.97;;;2.37;;
47167;SDS011;32931;47.778;17.806;2023-03-16T13:23:19;5.45;;;2.33;;
47167;SDS011;32931;47.778;17.806;2023-03-16T13:28:36;8.55;;;2.00;;
47167;SDS011;32931;47.778;17.806;2023-03-16T13:31:04;5.75;;;2.25;;
47167;SDS011;32931;47.778;17.806;2023-03-16T13:33:43;8.68;;;2.85;;
47167;SDS011;32931;47.778;17.806;2023-03-16T13:36:12;6.38;;;2.13;;
47167;SDS011;32931;47.778;17.806;2023-03-16T13:38:39;6.05;;;1.85;;
47167;SDS011;32931;47.778;17.806;2023-03-16T13:41:10;28.27;;;3.00;;
47167;SDS011;32931;47.778;17.806;2023-03-16T13:43:41;14.00;;;2.30;;
47167;SDS011;32931;47.778;17.806;2023-03-16T13:48:41;6.10;;;2.35;;
47167;SDS011;32931;47.778;17.806;2023-03-16T13:51:15;6.60;;;2.22;;
47167;SDS011;32931;47.778;17.806;2023-03-16T13:53:43;7.45;;;2.30;;
47167;SDS011;32931;47.778;17.806;2023-03-16T13:56:17;5.90;;;2.28;;
47167;SDS011;32931;47.778;17.806;2023-03-16T13:58:49;8.98;;;2.40;;
47167;SDS011;32931;47.778;17.806;2023-03-16T14:01:37;107.45;;;5.20;;
47167;SDS011;32931;47.778;17.806;2023-03-16T14:04:05;8.10;;;2.35;;
47167;SDS011;32931;47.778;17.806;2023-03-16T14:06:38;7.22;;;2.25;;
47167;SDS011;32931;47.778;17.806;2023-03-16T14:09:19;6.13;;;2.28;;
47167;SDS011;32931;47.778;17.806;2023-03-16T14:11:47;6.90;;;2.65;;
47167;SDS011;32931;47.778;17.806;2023-03-16T14:14:14;8.75;;;1.90;;
47167;SDS011;32931;47.778;17.806;2023-03-16T14:16:42;6.85;;;2.20;;
47167;SDS011;32931;47.778;17.806;2023-03-16T14:22:10;6.57;;;2.58;;
47167;SDS011;32931;47.778;17.806;2023-03-16T14:24:38;8.00;;;2.75;;
47167;SDS011;32931;47.778;17.806;2023-03-16T14:27:15;5.90;;;2.30;;
47167;SDS011;32931;47.778;17.806;2023-03-16T14:30:01;4.93;;;2.35;;
47167;SDS011;32931;47.778;17.806;2023-03-16T14:32:41;8.13;;;2.38;;
47167;SDS011;32931;47.778;17.806;2023-03-16T14:35:20;5.47;;;2.25;;
47167;SDS011;32931;47.778;17.806;2023-03-16T14:37:46;6.70;;;2.20;;
47167;SDS011;32931;47.778;17.806;2023-03-16T14:40:29;4.40;;;2.10;;
47167;SDS011;32931;47.778;17.806;2023-03-16T14:42:57;4.30;;;1.92;;
47167;SDS011;32931;47.778;17.806;2023-03-16T14:45:32;5.60;;;2.10;;
47167;SDS011;32931;47.778;17.806;2023-03-16T14:48:00;8.02;;;2.38;;
47167;SDS011;32931;47.778;17.806;2023-03-16T14:50:31;5.17;;;2.20;;
47167;SDS011;32931;47.778;17.806;2023-03-16T14:52:59;7.28;;;2.05;;
47167;SDS011;32931;47.778;17.806;2023-03-16T14:55:28;8.57;;;2.03;;
47167;SDS011;32931;47.778;17.806;2023-03-16T14:57:54;8.10;;;2.13;;
47167;SDS011;32931;47.778;17.806;2023-03-16T15:00:21;4.57;;;1.90;;
47167;SDS011;32931;47.778;17.806;2023-03-16T15:02:51;6.80;;;2.03;;
47167;SDS011;32931;47.778;17.806;2023-03-16T15:05:23;48.08;;;5.18;;
47167;SDS011;32931;47.778;17.806;2023-03-16T15:07:56;8.10;;;2.70;;
47167;SDS011;32931;47.778;17.806;2023-03-16T15:12:50;5.35;;;2.45;;
47167;SDS011;32931;47.778;17.806;2023-03-16T15:15:21;6.45;;;2.10;;
47167;SDS011;32931;47.778;17.806;2023-03-16T15:17:49;7.30;;;2.30;;
47167;SDS011;32931;47.778;17.806;2023-03-16T15:20:20;41.50;;;4.13;;
47167;SDS011;32931;47.778;17.806;2023-03-16T15:22:48;104.20;;;11.15;;
47167;SDS011;32931;47.778;17.806;2023-03-16T15:25:22;8.98;;;2.15;;
47167;SDS011;32931;47.778;17.806;2023-03-16T15:27:52;6.57;;;2.25;;
47167;SDS011;32931;47.778;17.806;2023-03-16T15:30:21;30.60;;;4.18;;
47167;SDS011;32931;47.778;17.806;2023-03-16T15:32:50;6.30;;;2.05;;
47167;SDS011;32931;47.778;17.806;2023-03-16T15:35:16;13.63;;;2.90;;
47167;SDS011;32931;47.778;17.806;2023-03-16T15:37:44;6.85;;;2.03;;
47167;SDS011;32931;47.778;17.806;2023-03-16T15:42:45;6.65;;;1.90;;
47167;SDS011;32931;47.778;17.806;2023-03-16T15:45:12;4.45;;;1.80;;
47167;SDS011;32931;47.778;17.806;2023-03-16T15:47:42;5.18;;;1.80;;
47167;SDS011;32931;47.778;17.806;2023-03-16T15:50:10;6.13;;;1.80;;
47167;SDS011;32931;47.778;17.806;2023-03-16T15:52:40;7.45;;;1.90;;
47167;SDS011;32931;47.778;17.806;2023-03-16T15:55:13;6.28;;;1.90;;
47167;SDS011;32931;47.778;17.806;2023-03-16T15:57:48;7.80;;;2.13;;
47167;SDS011;32931;47.778;17.806;2023-03-16T16:02:53;6.53;;;1.80;;
47167;SDS011;32931;47.778;17.806;2023-03-16T16:05:21;3.97;;;1.70;;
47167;SDS011;32931;47.778;17.806;2023-03-16T16:07:47;8.48;;;1.85;;
47167;SDS011;32931;47.778;17.806;2023-03-16T16:10:14;12.32;;;2.20;;
47167;SDS011;32931;47.778;17.806;2023-03-16T16:12:44;7.35;;;1.80;;
47167;SDS011;32931;47.778;17.806;2023-03-16T16:17:53;8.95;;;1.80;;
47167;SDS011;32931;47.778;17.806;2023-03-16T16:20:23;9.05;;;2.28;;
47167;SDS011;32931;47.778;17.806;2023-03-16T16:22:52;7.85;;;1.75;;
47167;SDS011;32931;47.778;17.806;2023-03-16T16:25:19;8.90;;;1.80;;
47167;SDS011;32931;47.778;17.806;2023-03-16T16:27:49;10.48;;;2.03;;